Time;durP1;ratioP1;P1;durP2;ratioP2;P2;SDS_P1;SDS_P2;PMS_P1;PMS_P2;Temp;Humidity;BMP_temperature;BMP_pressure;BME280_temperature;BME280_humidity;BME280_pressure;Samples;Min_cycle;Max_cycle;Signal;HPM_P1;HPM_P2
2022/06/21 00:00:19;;;;;;;2.27;1.52;;;;;;;23.97;38.23;98505.30;1710062;82;21482;-64
2022/06/21 00:02:46;;;;;;;2.90;1.70;;;;;;;23.94;38.19;98503.83;1700368;83;21474;-65
2022/06/21 00:05:25;;;;;;;3.22;1.30;;;;;;;23.23;38.38;98387.23;1694885;83;22202;-64
2022/06/21 00:07:52;;;;;;;4.78;1.50;;;;;;;23.91;38.14;98498.80;1697726;82;21585;-64
2022/06/21 00:10:19;;;;;;;3.15;1.70;;;;;;;23.91;38.14;98498.80;1692371;83;21575;-64
2022/06/21 00:12:47;;;;;;;2.45;1.40;;;;;;;23.86;38.21;98491.27;1693822;83;21018;-65
2022/06/21 00:15:14;;;;;;;1.90;1.62;;;;;;;23.86;38.14;98493.13;1690968;83;21109;-65
2022/06/21 00:17:43;;;;;;;1.57;1.40;;;;;;;23.83;38.24;98494.33;1690416;82;21804;-64
2022/06/21 00:20:13;;;;;;;4.03;1.45;;;;;;;23.76;38.32;98483.12;1666808;83;21411;-65
2022/06/21 00:22:42;;;;;;;3.30;1.60;;;;;;;23.76;38.32;98483.12;1723168;80;21507;-64
2022/06/21 00:25:23;;;;;;;1.22;1.12;;;;;;;23.70;38.32;98484.15;1698877;83;21554;-65
2022/06/21 00:27:51;;;;;;;4.30;1.50;;;;;;;23.67;38.36;98479.64;1691784;83;21513;-64
2022/06/21 00:30:18;;;;;;;2.45;1.62;;;;;;;23.66;38.41;98479.33;1694491;82;21857;-64
2022/06/21 00:32:46;;;;;;;2.87;1.72;;;;;;;23.62;38.14;98475.30;1699784;82;21540;-65
2022/06/21 00:35:17;;;;;;;2.98;1.57;;;;;;;23.60;38.24;98480.02;1684725;82;21676;-64
2022/06/21 00:37:44;;;;;;;5.75;1.42;;;;;;;23.54;38.23;98470.83;1696577;83;21660;-64
2022/06/21 00:40:28;;;;;;;5.03;1.77;;;;;;;23.54;38.23;98470.83;1711212;81;21447;-64
2022/06/21 00:43:17;;;;;;;2.00;1.50;;;;;;;23.47;38.41;98472.55;1690206;82;20938;-64
2022/06/21 00:45:46;;;;;;;2.08;1.20;;;;;;;23.47;38.41;98472.55;1692202;83;21415;-64
2022/06/21 00:48:25;;;;;;;3.45;1.70;;;;;;;23.38;38.54;98466.41;1736047;82;21549;-64
2022/06/21 00:50:56;;;;;;;6.40;1.80;;;;;;;23.38;38.54;98466.41;1728581;82;21523;-64
2022/06/21 00:53:31;;;;;;;1.77;1.42;;;;;;;23.34;38.55;98467.78;1695104;83;21015;-64
2022/06/21 00:56:29;;;;;;;3.87;1.47;;;;;;;23.28;38.59;98466.64;1687258;83;22118;-64
2022/06/21 00:58:56;;;;;;;5.70;2.37;;;;;;;23.28;38.59;98466.64;1700127;83;21469;-65
2022/06/21 01:01:30;;;;;;;4.22;1.70;;;;;;;23.26;38.80;98460.63;1688778;83;21510;-64
2022/06/21 01:04:04;;;;;;;4.67;1.80;;;;;;;23.21;38.82;98454.94;1685012;83;21451;-65
2022/06/21 01:06:35;;;;;;;2.17;1.50;;;;;;;23.21;38.82;98454.94;1682105;83;20985;-65
2022/06/21 01:09:35;;;;;;;3.22;1.50;;;;;;;23.17;38.98;98442.91;1734362;80;21943;-64
2022/06/21 01:12:15;;;;;;;2.10;1.60;;;;;;;23.14;39.06;98443.24;1706335;83;21606;-65
2022/06/21 01:14:54;;;;;;;2.92;1.55;;;;;;;23.06;39.15;98439.27;1700166;83;21442;-64
2022/06/21 01:17:21;;;;;;;1.95;1.50;;;;;;;23.01;39.24;98436.23;1692000;82;21557;-65
2022/06/21 01:19:51;;;;;;;4.05;2.00;;;;;;;22.97;39.26;98428.22;1704559;82;21740;-66
2022/06/21 01:22:48;;;;;;;3.42;1.70;;;;;;;22.94;39.41;98425.37;1693079;83;21811;-64
2022/06/21 01:25:32;;;;;;;5.42;1.70;;;;;;;22.91;39.43;98429.76;1701289;82;21501;-65
2022/06/21 01:27:59;;;;;;;3.02;1.75;;;;;;;22.87;39.57;98422.56;1695991;83;20965;-65
2022/06/21 01:30:28;;;;;;;2.98;1.80;;;;;;;22.83;39.68;98423.07;1701891;83;21481;-64
2022/06/21 01:32:56;;;;;;;;;;;;;;;22.79;39.75;98416.39;1708027;82;21107;-64
2022/06/21 01:35:44;;;;;;;3.75;1.45;;;;;;;22.73;39.84;98416.10;1679696;84;21168;-64
2022/06/21 01:38:15;;;;;;;2.42;1.52;;;;;;;22.67;39.78;98408.73;1684944;84;21493;-65
2022/06/21 01:40:45;;;;;;;2.02;1.57;;;;;;;22.64;39.89;98408.24;1669965;84;21482;-65
2022/06/21 01:43:18;;;;;;;2.67;1.50;;;;;;;22.61;40.04;98407.27;1680051;83;21527;-65
2022/06/21 01:45:48;;;;;;;2.67;1.72;;;;;;;22.51;40.04;98396.77;1672221;84;21586;-65
2022/06/21 01:48:25;;;;;;;1.77;1.40;;;;;;;22.51;40.04;98396.77;1702401;81;21807;-65
2022/06/21 01:50:57;;;;;;;1.60;1.37;;;;;;;22.50;40.29;98398.58;1699047;83;21108;-65
2022/06/21 01:53:24;;;;;;;2.47;1.90;;;;;;;22.46;40.41;98390.56;1704900;82;21584;-65
2022/06/21 01:55:58;;;;;;;1.92;1.70;;;;;;;22.42;40.57;98393.77;1698562;82;21639;-65
2022/06/21 01:58:28;;;;;;;4.62;1.57;;;;;;;22.35;40.68;98393.09;1702685;82;21553;-64
2022/06/21 02:00:59;;;;;;;1.72;1.42;;;;;;;22.35;40.68;98393.09;1700733;83;21781;-65
2022/06/21 02:03:32;;;;;;;6.12;1.82;;;;;;;22.32;40.85;98395.28;1691512;83;21431;-66
2022/06/21 02:06:02;;;;;;;2.17;1.50;;;;;;;22.30;40.93;98393.28;1688599;83;21505;-65
2022/06/21 02:08:49;;;;;;;3.40;1.60;;;;;;;22.26;41.08;98397.31;1700160;83;21523;-66
2022/06/21 02:11:21;;;;;;;4.00;1.80;;;;;;;22.21;41.27;98392.92;1681391;82;20998;-63
2022/06/21 02:14:28;;;;;;;2.50;1.57;;;;;;;22.18;41.29;98393.29;1680221;83;21881;-64
2022/06/21 02:16:21;;;;;;;2.87;1.85;;;;;;;22.08;41.64;98384.11;1668300;83;21457;-65
2022/06/21 02:18:54;;;;;;;4.57;1.90;;;;;;;22.08;41.64;98384.11;1681678;82;21038;-66
2022/06/21 02:21:35;;;;;;;2.02;1.52;;;;;;;22.07;41.72;98383.25;1680059;82;21555;-65
2022/06/21 02:24:01;;;;;;;3.77;1.67;;;;;;;22.03;41.96;98379.25;1666965;84;21476;-65
2022/06/21 02:26:30;;;;;;;7.97;1.60;;;;;;;21.99;41.93;98380.59;1689301;84;22065;-66
2022/06/21 02:28:59;;;;;;;3.70;2.17;;;;;;;21.96;42.09;98377.77;1690258;82;21464;-65
2022/06/21 02:31:26;;;;;;;2.98;1.77;;;;;;;21.96;42.09;98377.77;1656176;83;21555;-65
2022/06/21 02:33:54;;;;;;;1.85;1.72;;;;;;;21.93;42.27;98371.92;1677719;82;21563;-65
2022/06/21 02:36:32;;;;;;;2.37;1.60;;;;;;;21.93;42.20;98369.24;1679139;82;21587;-64
2022/06/21 02:39:02;;;;;;;2.72;1.75;;;;;;;21.92;42.37;98364.88;1689017;82;21876;-64
2022/06/21 02:41:39;;;;;;;1.60;1.47;;;;;;;21.93;42.23;98359.37;1683949;82;21515;-65
2022/06/21 02:44:36;;;;;;;1.70;1.60;;;;;;;21.95;42.35;98355.19;1676997;82;21526;-63
2022/06/21 02:47:08;;;;;;;5.40;1.87;;;;;;;21.94;42.36;98344.14;1685743;84;21459;-63
2022/06/21 02:50:01;;;;;;;4.03;1.70;;;;;;;21.95;42.23;98345.83;1685206;82;21007;-64
2022/06/21 02:52:32;;;;;;;1.67;1.50;;;;;;;21.97;42.38;98349.16;1684457;82;21888;-65
2022/06/21 02:55:11;;;;;;;4.08;1.62;;;;;;;21.97;42.38;98341.97;1686285;82;21641;-65
2022/06/21 02:57:49;;;;;;;2.80;1.55;;;;;;;21.95;42.55;98346.66;1675456;84;21505;-64
2022/06/21 03:00:18;;;;;;;;;;;;;;;21.96;42.65;98346.14;1734495;81;21443;-64
2022/06/21 03:02:45;;;;;;;2.25;1.80;;;;;;;21.97;42.89;98333.94;1724370;81;20434;-66
2022/06/21 03:05:17;;;;;;;2.35;1.57;;;;;;;21.97;42.72;98329.09;1716274;81;21645;-64
2022/06/21 03:07:48;;;;;;;5.90;1.70;;;;;;;22.01;42.82;98334.95;1706576;82;21431;-65
2022/06/21 03:10:19;;;;;;;1.98;1.70;;;;;;;22.02;42.73;98324.55;1735830;80;20983;-64
2022/06/21 03:12:47;;;;;;;4.08;1.80;;;;;;;22.04;42.75;98315.37;1730574;80;21490;-65
2022/06/21 03:15:16;;;;;;;3.20;1.90;;;;;;;22.08;42.92;98318.54;1724668;80;21533;-64
2022/06/21 03:17:51;;;;;;;1.95;1.70;;;;;;;22.11;42.88;98317.70;1730516;80;26939;-65
2022/06/21 03:20:20;;;;;;;4.00;1.50;;;;;;;22.15;42.85;98316.83;1699682;82;21487;-64
2022/06/21 03:22:48;;;;;;;1.57;1.42;;;;;;;22.20;42.83;98309.63;1704685;82;21494;-64
2022/06/21 03:25:20;;;;;;;;;;;;;;;22.24;42.84;98305.59;1695256;83;21585;-66
2022/06/21 03:27:55;;;;;;;2.60;1.77;;;;;;;22.27;42.92;98316.83;1685477;84;20410;-65
2022/06/21 03:30:26;;;;;;;2.55;1.60;;;;;;;22.32;42.64;98314.95;1678060;83;21902;-66
2022/06/21 03:32:54;;;;;;;3.75;1.65;;;;;;;22.38;42.74;98316.97;1695693;82;21502;-66
2022/06/21 03:35:21;;;;;;;4.92;1.70;;;;;;;22.46;42.87;98310.73;1698961;82;21498;-66
2022/06/21 03:37:48;;;;;;;4.05;1.60;;;;;;;22.52;42.71;98298.81;1694002;82;21537;-66
2022/06/21 03:43:11;;;;;;;3.15;1.90;;;;;;;22.78;42.24;98295.00;1703818;82;21560;-66
2022/06/21 03:45:40;;;;;;;5.03;1.75;;;;;;;22.78;42.24;98295.00;1700418;82;21001;-65
2022/06/21 03:48:34;;;;;;;3.45;1.65;;;;;;;22.86;42.15;98297.62;1696907;82;21509;-66
2022/06/21 03:51:13;;;;;;;3.50;1.52;;;;;;;23.05;41.71;98299.03;1697860;83;21591;-66
2022/06/21 03:53:50;;;;;;;1.92;1.70;;;;;;;23.05;41.71;98299.03;1692102;82;21558;-66
2022/06/21 03:56:43;;;;;;;2.42;1.72;;;;;;;23.13;41.76;98299.48;1690408;83;21749;-65
2022/06/21 03:59:21;;;;;;;6.50;2.20;;;;;;;23.31;41.93;98287.95;1677113;83;21528;-66
2022/06/21 04:02:15;;;;;;;4.58;2.10;;;;;;;23.39;41.52;98291.58;1673777;83;21598;-64
2022/06/21 04:04:58;;;;;;;2.62;1.60;;;;;;;23.39;41.52;98291.58;1674163;83;21620;-63
2022/06/21 04:07:42;;;;;;;3.00;1.82;;;;;;;23.48;41.56;98294.00;1676109;84;21611;-66
2022/06/21 04:10:35;;;;;;;4.17;1.80;;;;;;;23.58;41.43;98297.77;1672699;84;22491;-66
2022/06/21 04:13:16;;;;;;;3.00;1.70;;;;;;;23.65;41.21;98296.03;1682793;83;21698;-64
2022/06/21 04:15:53;;;;;;;4.55;2.00;;;;;;;23.74;41.22;98288.75;1681708;83;21043;-65
2022/06/21 04:18:32;;;;;;;;;;;;;;;23.84;41.19;98279.11;1677766;83;21058;-65
2022/06/21 04:21:17;;;;;;;4.08;1.62;;;;;;;24.00;40.88;98268.21;1674626;84;20481;-66
2022/06/21 04:23:59;;;;;;;5.45;2.10;;;;;;;24.00;40.88;98268.21;1697725;82;21779;-66
2022/06/21 04:26:34;;;;;;;2.50;1.70;;;;;;;24.07;41.01;98267.80;1688960;84;21414;-66
2022/06/21 04:29:11;;;;;;;4.62;1.98;;;;;;;24.18;40.76;98267.82;1688321;83;21593;-66
2022/06/21 04:31:49;;;;;;;3.15;2.00;;;;;;;24.26;40.75;98270.91;1711182;83;21028;-64
2022/06/21 04:34:21;;;;;;;;;;;;;;;24.35;40.82;98271.13;1683513;83;21445;-67
2022/06/21 04:36:56;;;;;;;6.10;1.85;;;;;;;24.42;40.46;98272.05;1716492;81;21835;-65
2022/06/21 04:39:28;;;;;;;7.20;2.20;;;;;;;24.46;40.67;98263.94;1711479;82;21528;-64
2022/06/21 04:42:00;;;;;;;3.45;2.20;;;;;;;24.55;40.68;98259.85;1688933;84;21497;-64
2022/06/21 04:44:53;;;;;;;2.67;1.85;;;;;;;24.62;40.45;98273.68;1688031;83;21482;-64
2022/06/21 04:47:29;;;;;;;5.72;2.30;;;;;;;24.68;40.26;98264.85;1717577;81;21540;-64
2022/06/21 04:50:25;;;;;;;5.42;2.05;;;;;;;24.77;40.18;98274.13;1688420;83;22071;-65
2022/06/21 04:53:17;;;;;;;4.12;2.37;;;;;;;24.85;39.88;98262.77;1717615;83;21548;-66
2022/06/21 04:55:56;;;;;;;5.87;2.05;;;;;;;24.91;40.10;98268.41;1713052;83;20997;-65
2022/06/21 04:58:22;;;;;;;10.30;2.95;;;;;;;24.98;39.84;98264.76;1677910;83;21526;-66
2022/06/21 05:00:49;;;;;;;4.07;2.10;;;;;;;25.04;39.78;98259.12;1668687;82;21592;-65
2022/06/21 05:03:37;;;;;;;2.80;2.12;;;;;;;25.11;39.68;98261.86;1717465;82;21816;-66
2022/06/21 05:06:06;;;;;;;6.25;3.12;;;;;;;25.18;39.61;98261.42;1695879;81;21571;-65
2022/06/21 05:08:33;;;;;;;3.10;2.52;;;;;;;25.23;39.55;98254.98;1716707;82;20993;-65
2022/06/21 05:11:01;;;;;;;4.47;2.30;;;;;;;25.28;39.61;98247.66;1716775;82;20990;-66
2022/06/21 05:13:34;;;;;;;12.70;3.08;;;;;;;25.33;39.83;98245.23;1717652;82;21458;-65
2022/06/21 05:16:22;;;;;;;11.50;2.70;;;;;;;25.51;39.31;98245.59;1693842;82;21847;-66
2022/06/21 05:18:56;;;;;;;2.77;2.27;;;;;;;25.51;39.31;98245.59;1680439;82;21591;-65
2022/06/21 05:21:33;;;;;;;2.90;2.60;;;;;;;25.58;39.38;98246.48;1717617;82;21040;-65
2022/06/21 05:24:00;;;;;;;3.52;2.25;;;;;;;25.68;39.47;98243.44;1716060;81;21529;-65
2022/06/21 05:26:39;;;;;;;5.55;2.40;;;;;;;25.75;39.27;98234.05;1716470;82;21422;-65
2022/06/21 05:29:11;;;;;;;4.12;2.70;;;;;;;25.83;39.52;98234.73;1710726;82;21812;-65
2022/06/21 05:31:42;;;;;;;7.58;2.95;;;;;;;25.94;39.62;98229.34;1712251;83;21461;-60
2022/06/21 05:34:36;;;;;;;5.42;2.30;;;;;;;26.02;39.72;98223.78;1724341;82;21533;-61
2022/06/21 05:37:17;;;;;;;4.28;2.58;;;;;;;26.10;39.32;98213.35;1711869;82;21541;-61
2022/06/21 05:39:47;;;;;;;2.98;2.40;;;;;;;26.18;39.29;98218.59;1714857;81;21529;-63
2022/06/21 05:42:14;;;;;;;5.53;3.00;;;;;;;26.26;39.70;98217.58;1714669;81;21414;-62
2022/06/21 05:44:52;;;;;;;5.08;2.47;;;;;;;26.36;39.62;98213.98;1711131;83;21533;-63
2022/06/21 05:47:40;;;;;;;5.37;2.62;;;;;;;26.44;39.51;98223.75;1712319;83;21505;-63
2022/06/21 05:50:14;;;;;;;9.00;2.30;;;;;;;26.53;39.87;98215.80;1717123;81;21645;-60
2022/06/21 05:52:46;;;;;;;9.45;2.80;;;;;;;26.63;39.45;98202.48;1695438;81;21568;-62
2022/06/21 05:55:18;;;;;;;10.70;3.05;;;;;;;26.73;39.41;98206.95;1708293;82;21845;-62
2022/06/21 05:57:57;;;;;;;2.98;2.37;;;;;;;26.76;39.35;98207.38;1720035;81;21443;-64
2022/06/21 06:00:48;;;;;;;6.10;2.47;;;;;;;26.84;39.22;98196.91;1708257;82;21568;-61
2022/06/21 06:03:34;;;;;;;8.83;2.77;;;;;;;26.90;39.28;98191.21;1725409;81;21079;-61
2022/06/21 06:06:05;;;;;;;5.37;2.85;;;;;;;26.98;39.64;98197.77;1728461;81;21037;-60
2022/06/21 06:08:36;;;;;;;9.15;2.87;;;;;;;27.06;39.22;98192.16;1726635;82;21713;-61
2022/06/21 06:11:05;;;;;;;4.87;2.58;;;;;;;27.11;39.30;98191.03;1730793;81;21514;-62
2022/06/21 06:13:35;;;;;;;5.85;3.05;;;;;;;27.18;39.32;98187.82;1705617;82;21533;-62
2022/06/21 06:16:07;;;;;;;6.53;3.30;;;;;;;27.28;39.27;98186.61;1722532;81;21478;-62
2022/06/21 06:18:48;;;;;;;7.83;3.42;;;;;;;27.35;39.08;98188.75;1699750;83;21478;-62
2022/06/21 06:21:32;;;;;;;6.70;3.27;;;;;;;27.40;38.71;98195.71;1690974;83;21727;-62
2022/06/21 06:24:04;;;;;;;7.28;3.33;;;;;;;27.46;38.83;98196.22;1721550;81;21427;-63
2022/06/21 06:26:37;;;;;;;5.85;3.00;;;;;;;27.53;39.08;98197.04;1727717;81;21537;-61
2022/06/21 06:29:18;;;;;;;7.75;3.50;;;;;;;27.56;39.10;98184.48;1726474;81;21569;-61
2022/06/21 06:32:03;;;;;;;3.80;3.12;;;;;;;27.63;39.34;98180.94;1716232;81;21504;-61
2022/06/21 06:34:36;;;;;;;7.62;3.27;;;;;;;27.76;38.99;98182.25;1726320;81;21497;-61
2022/06/21 06:37:22;;;;;;;4.37;3.00;;;;;;;27.86;39.15;98175.91;1719493;82;21032;-62
2022/06/21 06:39:49;;;;;;;7.20;3.42;;;;;;;27.92;38.80;98174.25;1697014;82;21587;-61
2022/06/21 06:42:19;;;;;;;5.25;2.87;;;;;;;27.98;38.82;98172.57;1714513;83;21502;-61
2022/06/21 06:44:53;;;;;;;6.83;3.12;;;;;;;28.06;38.82;98171.79;1713629;82;21422;-61
2022/06/21 06:47:33;;;;;;;4.53;2.70;;;;;;;28.13;38.71;98161.79;1716740;83;21939;-61
2022/06/21 06:50:11;;;;;;;11.48;3.00;;;;;;;28.25;39.13;98167.34;1727161;81;21533;-61
2022/06/21 06:52:42;;;;;;;6.20;2.77;;;;;;;28.34;38.53;98161.17;1730365;81;21430;-60
2022/06/21 06:55:29;;;;;;;5.30;2.75;;;;;;;28.40;38.51;98156.77;1697846;83;21502;-60
2022/06/21 06:58:02;;;;;;;15.72;3.27;;;;;;;28.45;38.48;98151.02;1703385;82;21810;-60
2022/06/21 07:00:39;;;;;;;3.98;2.83;;;;;;;28.53;38.51;98152.67;1676483;83;21554;-60
2022/06/21 07:03:21;;;;;;;6.03;2.75;;;;;;;28.57;38.58;98149.83;1692888;84;21565;-60
2022/06/21 07:06:02;;;;;;;8.80;3.02;;;;;;;28.60;39.37;98154.81;1709586;82;21885;-61
2022/06/21 07:08:55;;;;;;;3.22;2.62;;;;;;;28.67;38.95;98154.25;1706446;82;20961;-61
2022/06/21 07:11:42;;;;;;;3.65;2.40;;;;;;;28.77;38.99;98157.81;1702441;82;21446;-61
2022/06/21 07:14:19;;;;;;;6.15;2.95;;;;;;;28.88;39.04;98157.64;1701770;82;21778;-60
2022/06/21 07:16:53;;;;;;;7.62;3.10;;;;;;;29.05;39.33;98153.33;1702517;82;21593;-61
2022/06/21 07:19:19;;;;;;;6.05;2.80;;;;;;;29.21;39.53;98152.50;1677158;84;21593;-60
2022/06/21 07:21:46;;;;;;;8.30;3.08;;;;;;;29.34;38.85;98160.48;1704063;82;21509;-60
2022/06/21 07:24:16;;;;;;;3.92;3.10;;;;;;;29.37;38.95;98155.99;1709974;81;21546;-60
2022/06/21 07:27:02;;;;;;;4.22;3.25;;;;;;;29.39;38.67;98148.47;1704255;82;21850;-62
2022/06/21 07:30:04;;;;;;;5.37;3.00;;;;;;;29.40;38.65;98152.81;1692400;82;21564;-60
2022/06/21 07:32:38;;;;;;;4.58;3.17;;;;;;;29.46;38.82;98157.86;1698419;82;21596;-60
2022/06/21 07:35:12;;;;;;;4.58;2.58;;;;;;;29.41;38.84;98151.78;1695937;82;21010;-60
2022/06/21 07:38:02;;;;;;;7.33;3.00;;;;;;;29.45;38.92;98153.52;1707701;82;21577;-61
2022/06/21 07:40:46;;;;;;;5.35;2.90;;;;;;;29.50;39.13;98149.63;1711923;82;22058;-60
2022/06/21 07:43:37;;;;;;;7.10;3.58;;;;;;;29.55;39.58;98153.00;1701564;82;21138;-62
2022/06/21 07:46:07;;;;;;;9.50;3.60;;;;;;;29.62;39.57;98142.92;1681975;83;21829;-63
2022/06/21 07:49:09;;;;;;;11.28;3.62;;;;;;;29.73;39.53;98146.77;1693452;82;21493;-62
2022/06/21 07:51:41;;;;;;;7.75;3.40;;;;;;;29.81;39.41;98138.37;1703879;82;21489;-62
2022/06/21 07:54:24;;;;;;;8.05;3.58;;;;;;;29.89;38.79;98139.41;1691165;82;21944;-63
2022/06/21 07:57:01;;;;;;;5.22;2.98;;;;;;;29.91;39.01;98137.83;1700253;83;21556;-62
2022/06/21 07:59:38;;;;;;;6.95;3.40;;;;;;;29.92;38.68;98131.37;1691481;82;21050;-65
2022/06/21 08:08:05;;;;;;;9.83;3.80;;;;;;;30.07;39.29;98130.44;1719085;81;21911;-63
2022/06/21 08:10:39;;;;;;;5.97;3.15;;;;;;;30.11;39.12;98129.45;1700950;82;21549;-63
2022/06/21 08:13:06;;;;;;;11.38;3.67;;;;;;;30.13;39.42;98128.16;1693351;83;21541;-62
2022/06/21 08:15:40;;;;;;;30.32;6.00;;;;;;;30.22;39.62;98124.62;1696921;82;21502;-63
2022/06/21 08:18:12;;;;;;;14.73;4.47;;;;;;;30.23;39.61;98114.91;1758687;80;21554;-61
2022/06/21 08:20:45;;;;;;;11.85;4.70;;;;;;;30.26;39.56;98105.48;1757736;80;21913;-62
2022/06/21 08:23:19;;;;;;;6.40;3.37;;;;;;;30.38;39.50;98106.90;1760931;80;21508;-62
2022/06/21 08:25:57;;;;;;;9.23;3.90;;;;;;;30.47;39.02;98119.06;1757636;80;21486;-64
2022/06/21 08:28:59;;;;;;;10.18;4.30;;;;;;;30.53;38.64;98111.89;1758900;80;21715;-63
2022/06/21 08:31:33;;;;;;;6.85;3.65;;;;;;;30.57;39.22;98117.99;1752480;80;20949;-65
2022/06/21 08:34:17;;;;;;;8.23;3.65;;;;;;;30.67;38.74;98117.42;1756662;80;21839;-64
2022/06/21 08:36:52;;;;;;;9.38;3.80;;;;;;;30.79;38.37;98117.43;1715156;81;21486;-64
2022/06/21 08:39:33;;;;;;;6.53;3.77;;;;;;;30.93;37.96;98113.99;1756647;80;21419;-64
2022/06/21 08:42:44;;;;;;;6.67;3.58;;;;;;;31.05;38.36;98103.98;1760947;80;21469;-66
2022/06/21 08:45:40;;;;;;;10.25;3.67;;;;;;;31.08;38.17;98102.67;1758746;80;21438;-63
2022/06/21 08:48:59;;;;;;;4.03;3.20;;;;;;;31.00;38.00;98103.31;1753678;80;21806;-62
2022/06/21 08:52:05;;;;;;;7.33;3.15;;;;;;;30.95;38.29;98106.44;1750111;80;21539;-62
2022/06/21 08:55:03;;;;;;;8.15;3.72;;;;;;;30.98;38.17;98105.44;1755192;80;21006;-61
2022/06/21 08:58:02;;;;;;;6.67;3.77;;;;;;;31.07;37.48;98105.93;1737956;79;21490;-62
2022/06/21 09:00:41;;;;;;;8.33;3.12;;;;;;;31.10;37.57;98097.83;1756432;79;21493;-63
2022/06/21 09:03:13;;;;;;;6.30;3.20;;;;;;;31.21;37.47;98098.36;1762735;80;23057;-63
2022/06/21 09:05:48;;;;;;;7.08;3.35;;;;;;;31.37;37.26;98094.94;1765449;79;21432;-65
2022/06/21 09:08:43;;;;;;;6.58;3.10;;;;;;;31.51;37.11;98084.66;1763155;80;21482;-63
2022/06/21 09:11:19;;;;;;;8.75;3.05;;;;;;;31.65;37.21;98089.32;1768946;79;21492;-62
2022/06/21 09:13:57;;;;;;;8.80;4.17;;;;;;;31.84;36.60;98089.16;1768194;80;21430;-63
2022/06/21 09:17:03;;;;;;;8.28;3.72;;;;;;;31.93;36.30;98084.96;1759583;80;21987;-62
2022/06/21 09:20:19;;;;;;;5.40;3.12;;;;;;;32.01;36.06;98085.41;1761523;80;21033;-61
2022/06/21 09:23:05;;;;;;;8.28;3.40;;;;;;;32.09;36.09;98081.51;1672326;83;21101;-64
2022/06/21 09:26:14;;;;;;;4.67;3.40;;;;;;;32.25;35.23;98074.99;1666862;83;21452;-62
2022/06/21 09:28:44;;;;;;;5.97;3.00;;;;;;;32.38;35.04;98076.04;1660335;83;21064;-65
2022/06/21 09:31:36;;;;;;;10.50;3.22;;;;;;;32.28;34.78;98071.80;1671918;83;21543;-64
2022/06/21 09:34:54;;;;;;;5.67;3.15;;;;;;;32.19;34.80;98074.07;1675642;84;21613;-60
2022/06/21 09:38:01;;;;;;;8.18;2.90;;;;;;;32.07;34.91;98071.42;1593498;88;21551;-65
2022/06/21 09:40:35;;;;;;;12.25;3.20;;;;;;;32.00;35.13;98062.55;1538232;91;21743;-64
2022/06/21 09:43:22;;;;;;;5.53;3.20;;;;;;;31.92;34.94;98062.41;1641373;84;21058;-63
2022/06/21 09:46:12;;;;;;;4.78;3.08;;;;;;;31.85;35.03;98055.47;1677488;84;22473;-63
2022/06/21 09:48:57;;;;;;;5.37;2.92;;;;;;;31.87;35.10;98046.53;1671159;83;21478;-62
2022/06/21 09:51:32;;;;;;;5.42;2.85;;;;;;;31.87;35.37;98051.97;1676325;83;21474;-62
2022/06/21 09:54:25;;;;;;;4.05;2.72;;;;;;;31.81;35.26;98049.15;1677623;83;21619;-60
2022/06/21 09:57:09;;;;;;;3.83;2.98;;;;;;;31.79;35.61;98039.06;1673508;84;21616;-62
2022/06/21 10:00:06;;;;;;;6.70;2.87;;;;;;;31.87;35.28;98037.84;1679025;84;21797;-61
2022/06/21 10:03:18;;;;;;;6.55;3.35;;;;;;;31.85;35.35;98030.47;1677236;84;21414;-63
2022/06/21 10:06:10;;;;;;;4.70;2.80;;;;;;;31.79;35.71;98028.19;1678724;84;20971;-62
2022/06/21 10:09:17;;;;;;;8.75;3.00;;;;;;;31.69;35.53;98028.01;1671569;83;21561;-63
2022/06/21 10:12:17;;;;;;;9.53;2.92;;;;;;;31.53;35.91;98026.05;1676950;84;21490;-63
2022/06/21 10:15:12;;;;;;;8.33;2.98;;;;;;;31.46;35.77;98035.67;1672731;83;22096;-63
2022/06/21 10:17:48;;;;;;;6.03;3.02;;;;;;;31.33;36.02;98027.25;1676557;83;21073;-62
2022/06/21 10:20:53;;;;;;;13.10;3.58;;;;;;;31.17;36.58;98028.80;1673867;83;21474;-61
2022/06/21 10:23:42;;;;;;;8.25;2.55;;;;;;;31.03;37.01;98026.05;1694117;83;21527;-64
2022/06/21 10:26:25;;;;;;;11.78;3.40;;;;;;;30.81;37.79;98029.86;1693662;83;21588;-64
2022/06/21 10:29:37;;;;;;;11.15;3.75;;;;;;;30.47;38.47;98030.41;1699447;83;21814;-63
2022/06/21 10:32:47;;;;;;;10.30;3.75;;;;;;;30.21;38.96;98033.52;1697858;83;21601;-63
2022/06/21 10:35:43;;;;;;;16.12;4.10;;;;;;;29.79;41.08;98028.89;1688906;83;21412;-63
2022/06/21 10:38:43;;;;;;;13.00;4.08;;;;;;;29.19;45.69;98062.06;1690105;83;21510;-62
2022/06/21 10:41:37;;;;;;;12.13;4.42;;;;;;;28.60;47.95;98095.34;1695643;83;21525;-62
2022/06/21 10:44:30;;;;;;;17.25;5.47;;;;;;;27.81;52.99;98118.17;1693505;82;21956;-61
2022/06/21 10:47:01;;;;;;;18.35;5.15;;;;;;;27.16;54.74;98115.72;1691702;82;21518;-61
2022/06/21 10:50:01;;;;;;;18.02;4.65;;;;;;;26.72;56.10;98113.13;1633907;85;21014;-64
2022/06/21 10:53:01;;;;;;;10.48;4.25;;;;;;;26.54;57.92;98107.47;1658683;85;21572;-63
2022/06/21 10:57:09;;;;;;;10.13;4.53;;;;;;;26.32;59.01;98113.05;1637311;86;21633;-62
2022/06/21 10:58:56;;;;;;;9.10;4.12;;;;;;;26.25;59.45;98113.55;1655195;84;21839;-62
2022/06/21 11:01:34;;;;;;;15.95;4.37;;;;;;;26.21;59.83;98126.59;1683561;83;21415;-62
2022/06/21 11:04:34;;;;;;;8.85;4.12;;;;;;;26.17;60.21;98124.52;1685523;83;20998;-64
2022/06/21 11:07:15;;;;;;;12.00;4.15;;;;;;;26.14;60.79;98123.56;1646693;83;21511;-64
2022/06/21 11:09:57;;;;;;;12.98;3.72;;;;;;;26.16;61.88;98125.53;1694483;83;21042;-65
2022/06/21 11:12:53;;;;;;;11.65;4.53;;;;;;;26.27;62.47;98135.72;1684649;83;21778;-62
2022/06/21 11:15:37;;;;;;;6.33;3.80;;;;;;;26.31;62.85;98123.50;1686212;83;21453;-64
2022/06/21 11:18:31;;;;;;;5.12;3.52;;;;;;;26.35;62.50;98130.16;1691483;83;21486;-66
2022/06/21 11:21:16;;;;;;;9.80;3.80;;;;;;;26.32;61.01;98123.83;1687227;83;21580;-63
2022/06/21 11:26:58;;;;;;;8.60;4.15;;;;;;;25.66;65.80;98114.14;1783880;79;23243;-64
2022/06/21 11:29:48;;;;;;;6.95;4.25;;;;;;;26.05;62.28;98122.08;1761920;80;21478;-61
2022/06/21 11:32:21;;;;;;;7.60;5.10;;;;;;;26.00;61.54;98131.59;1753714;80;21820;-61
2022/06/21 11:35:39;;;;;;;7.30;5.03;;;;;;;25.86;60.88;98131.72;1762016;80;21647;-62
2022/06/21 11:38:36;;;;;;;;;;;;;;;25.72;60.29;98137.03;1773710;80;21093;-59
2022/06/21 11:44:49;;;;;;;9.35;6.58;;;;;;;25.38;62.13;98189.83;1756238;80;21599;-60
2022/06/21 11:47:30;;;;;;;11.35;5.20;;;;;;;24.95;63.15;98246.31;1757338;80;21815;-59
2022/06/21 11:50:20;;;;;;;12.05;3.65;;;;;;;24.37;64.05;98250.29;1749306;80;21430;-59
2022/06/21 11:53:22;;;;;;;8.28;3.00;;;;;;;23.81;65.95;98276.79;1761670;80;21472;-60
2022/06/21 11:55:58;;;;;;;8.60;2.80;;;;;;;23.30;68.86;98284.95;1762240;80;21566;-59
2022/06/21 11:58:41;;;;;;;10.70;2.72;;;;;;;22.79;71.46;98285.11;1765178;80;21581;-62
2022/06/21 12:01:38;;;;;;;7.72;2.08;;;;;;;22.48;71.29;98298.01;1768031;80;21894;-60
2022/06/21 12:04:42;;;;;;;3.83;1.82;;;;;;;22.32;71.57;98325.19;1765991;80;21522;-61
2022/06/21 12:07:20;;;;;;;4.67;1.77;;;;;;;22.14;72.16;98340.59;1762683;80;20992;-59
2022/06/21 12:09:58;;;;;;;8.40;1.20;;;;;;;21.97;73.61;98336.61;1760835;80;21451;-61
2022/06/21 12:13:02;;;;;;;6.00;1.25;;;;;;;21.76;76.04;98332.31;1756840;80;21543;-64
2022/06/21 12:15:58;;;;;;;3.27;1.30;;;;;;;21.60;74.08;98337.16;1695474;81;21561;-63
2022/06/21 12:18:28;;;;;;;3.22;1.05;;;;;;;21.50;73.75;98344.02;1708809;81;21656;-61
2022/06/21 12:21:06;;;;;;;2.05;1.15;;;;;;;21.39;74.39;98346.98;1696815;83;21588;-62
2022/06/21 12:23:48;;;;;;;3.47;0.90;;;;;;;21.31;74.02;98326.94;1720952;81;21050;-61
2022/06/21 12:26:17;;;;;;;0.95;0.80;;;;;;;21.06;72.65;98327.39;1690340;83;21121;-62
2022/06/21 12:28:44;;;;;;;1.42;0.98;;;;;;;21.06;72.65;98327.39;1745857;80;21832;-62
2022/06/21 12:31:30;;;;;;;0.85;0.55;;;;;;;20.91;73.04;98322.71;1732434;80;21511;-62
2022/06/21 12:34:10;;;;;;;4.00;0.95;;;;;;;20.74;73.53;98351.72;1739369;80;21427;-61
2022/06/21 12:36:48;;;;;;;2.27;1.10;;;;;;;20.74;73.53;98351.72;1731598;80;20999;-60
2022/06/21 12:39:31;;;;;;;1.02;0.62;;;;;;;20.69;73.69;98330.83;1742115;80;21700;-61
2022/06/21 12:42:49;;;;;;;3.70;1.30;;;;;;;20.61;73.63;98366.86;1737351;80;22198;-61
2022/06/21 12:45:30;;;;;;;2.33;0.80;;;;;;;20.48;74.46;98371.27;1742605;80;21719;-61
2022/06/21 12:48:14;;;;;;;0.80;0.80;;;;;;;20.45;74.05;98367.58;1738757;80;21582;-62
2022/06/21 12:51:11;;;;;;;0.70;0.70;;;;;;;20.42;73.94;98369.25;1741916;80;21149;-61